YBEW weather

Beechworth Airport
New South Wales, Australia

Public forecast

Using degrees Celsius for public forecast. Weather courtesy of forecast.io.

Closest aviation weather report (METAR) to Beechworth Airport

Closest report is Cobar Airport, 63.5 nm (117.6 km) ENE. Retrieved 2019/12/08 23:00 UTC (58 minutes ago):

YCBA 082300Z AUTO 06011KT 9999 // NCD 32/02 Q1017

Closest aviation forecast (TAF) to Beechworth Airport

Closest forecast is Dubbo City Regional Airport, 201.4 nm (372.9 km) E. Retrieved 2019/12/08 18:37 UTC (5 hours ago):

TAF YSDU 081706Z 0818/0912 09014KT 6000 FU NSC FM082100 07010KT 6000 FU NSC BECMG 0823/0901 36012KT CAVOK FM090300 32012KT CAVOK BECMG 0909/0911 06006KT 8000 FU NSC PROB30 0818/0902 4000 FU